Time,TemperatureF,DewpointF,PressureIn,WindDirection,WindDirectionDegrees,WindSpeedMPH,WindSpeedGustMPH,Humidity,HourlyPrecipIn,Conditions,Clouds,dailyrainin,SoftwareType,DateUTC
2013-08-21 00:06:00,69.4,64.0,30.10,WSW,237,0.0,0.0,84,0.00,,,0.00,weatherlink.com 1.10,2013-08-21 04:06:00,
2013-08-21 00:21:00,69.6,65.0,30.11,SW,236,0.0,1.0,84,0.00,,,0.00,weatherlink.com 1.10,2013-08-21 04:21:00,
2013-08-21 00:51:00,68.1,64.0,30.11,SW,236,0.0,0.0,86,0.00,,,0.00,weatherlink.com 1.10,2013-08-21 04:51:00,
2013-08-21 01:06:00,67.6,64.0,30.11,SW,236,0.0,0.0,88,0.00,,,0.00,weatherlink.com 1.10,2013-08-21 05:06:00,
2013-08-21 01:21:00,68.4,64.0,30.11,WSW,239,0.0,0.0,86,0.00,,,0.00,weatherlink.com 1.10,2013-08-21 05:21:00,
2013-08-21 01:36:00,69.1,64.0,30.11,West,273,0.0,1.0,84,0.00,,,0.00,weatherlink.com 1.10,2013-08-21 05:36:00,
2013-08-21 01:51:00,68.9,64.0,30.11,West,274,0.0,1.0,85,0.00,,,0.00,weatherlink.com 1.10,2013-08-21 05:51:00,
2013-08-21 02:06:00,69.9,64.0,30.11,WNW,283,0.0,3.0,82,0.00,,,0.00,weatherlink.com 1.10,2013-08-21 06:06:00,
2013-08-21 02:21:00,69.9,64.0,30.11,WNW,283,0.0,1.0,82,0.00,,,0.00,weatherlink.com 1.10,2013-08-21 06:21:00,
2013-08-21 02:36:00,69.2,64.0,30.11,WNW,283,0.0,0.0,83,0.00,,,0.00,weatherlink.com 1.10,2013-08-21 06:36:00,
2013-08-21 02:51:00,68.4,64.0,30.11,WNW,283,0.0,1.0,85,0.00,,,0.00,weatherlink.com 1.10,2013-08-21 06:51:00,
2013-08-21 03:06:00,68.0,63.0,30.11,WNW,284,0.0,1.0,85,0.00,,,0.00,weatherlink.com 1.10,2013-08-21 07:06:00,
2013-08-21 03:21:00,67.4,63.0,30.11,WNW,284,0.0,0.0,86,0.00,,,0.00,weatherlink.com 1.10,2013-08-21 07:21:00,
2013-08-21 03:36:00,66.4,63.0,30.11,WNW,283,0.0,0.0,88,0.00,,,0.00,weatherlink.com 1.10,2013-08-21 07:36:00,
2013-08-21 03:51:00,65.7,62.0,30.11,WNW,283,0.0,0.0,89,0.00,,,0.00,weatherlink.com 1.10,2013-08-21 07:51:00,
2013-08-21 04:06:00,65.0,62.0,30.11,WNW,283,0.0,0.0,90,0.00,,,0.00,weatherlink.com 1.10,2013-08-21 08:06:00,
2013-08-21 04:21:00,64.4,62.0,30.12,WNW,283,0.0,0.0,91,0.00,,,0.00,weatherlink.com 1.10,2013-08-21 08:21:00,
2013-08-21 04:36:00,64.1,62.0,30.12,WNW,283,0.0,0.0,92,0.00,,,0.00,weatherlink.com 1.10,2013-08-21 08:36:00,
2013-08-21 04:51:00,64.2,62.0,30.12,WNW,283,0.0,0.0,93,0.00,,,0.00,weatherlink.com 1.10,2013-08-21 08:51:00,
2013-08-21 05:06:00,64.2,62.0,30.12,WNW,283,0.0,0.0,93,0.00,,,0.00,weatherlink.com 1.10,2013-08-21 09:06:00,
2013-08-21 05:21:00,64.1,62.0,30.13,WNW,283,0.0,0.0,93,0.00,,,0.00,weatherlink.com 1.10,2013-08-21 09:21:00,
2013-08-21 05:36:00,63.8,62.0,30.13,WNW,283,0.0,0.0,93,0.00,,,0.00,weatherlink.com 1.10,2013-08-21 09:36:00,
2013-08-21 05:51:00,63.8,62.0,30.13,WNW,283,0.0,0.0,94,0.00,,,0.00,weatherlink.com 1.10,2013-08-21 09:51:00,
2013-08-21 06:06:00,64.1,62.0,30.13,WNW,284,0.0,1.0,94,0.00,,,0.00,weatherlink.com 1.10,2013-08-21 10:06:00,
2013-08-21 06:21:00,64.2,63.0,30.14,WNW,284,0.0,0.0,94,0.00,,,0.00,weatherlink.com 1.10,2013-08-21 10:21:00,
2013-08-21 06:36:00,64.9,63.0,30.14,NNW,346,0.0,1.0,93,0.00,,,0.00,weatherlink.com 1.10,2013-08-21 10:36:00,
2013-08-21 06:51:00,65.8,64.0,30.14,NNW,346,0.0,0.0,92,0.00,,,0.00,weatherlink.com 1.10,2013-08-21 10:51:00,
2013-08-21 07:06:00,67.3,64.0,30.14,NNW,345,0.0,1.0,90,0.00,,,0.00,weatherlink.com 1.10,2013-08-21 11:06:00,
2013-08-21 07:22:00,69.4,65.0,30.15,NNW,345,0.0,0.0,86,0.00,,,0.00,weatherlink.com 1.10,2013-08-21 11:22:00,
2013-08-21 07:37:00,72.1,66.0,30.15,NNW,345,0.0,1.0,82,0.00,,,0.00,weatherlink.com 1.10,2013-08-21 11:37:00,
2013-08-21 07:52:00,74.6,66.0,30.15,WSW,249,0.0,0.0,75,0.00,,,0.00,weatherlink.com 1.10,2013-08-21 11:52:00,
2013-08-21 08:07:00,75.5,66.0,30.15,WNW,302,0.0,2.0,72,0.00,,,0.00,weatherlink.com 1.10,2013-08-21 12:07:00,
2013-08-21 08:22:00,76.4,66.0,30.15,West,276,0.0,1.0,70,0.00,,,0.00,weatherlink.com 1.10,2013-08-21 12:22:00,
2013-08-21 08:37:00,77.6,66.0,30.15,West,278,1.0,1.0,67,0.00,,,0.00,weatherlink.com 1.10,2013-08-21 12:37:00,
2013-08-21 08:52:00,78.8,66.0,30.15,WSW,241,0.0,1.0,65,0.00,,,0.00,weatherlink.com 1.10,2013-08-21 12:52:00,
2013-08-21 09:07:00,79.4,66.0,30.15,WNW,297,0.0,1.0,64,0.00,,,0.00,weatherlink.com 1.10,2013-08-21 13:07:00,
2013-08-21 09:22:00,80.5,66.0,30.15,NW,304,0.0,1.0,62,0.00,,,0.00,weatherlink.com 1.10,2013-08-21 13:22:00,
2013-08-21 09:37:00,81.2,69.0,30.15,NE,54,2.0,4.0,66,0.00,,,0.00,weatherlink.com 1.10,2013-08-21 13:37:00,
2013-08-21 09:52:00,80.4,69.0,30.15,East,93,1.0,3.0,68,0.00,,,0.00,weatherlink.com 1.10,2013-08-21 13:52:00,
2013-08-21 10:07:00,81.5,69.0,30.15,ESE,120,0.0,3.0,65,0.00,,,0.00,weatherlink.com 1.10,2013-08-21 14:07:00,
2013-08-21 10:22:00,82.0,71.0,30.15,South,175,0.0,3.0,70,0.00,,,0.00,weatherlink.com 1.10,2013-08-21 14:22:00,
2013-08-21 10:37:00,82.4,71.0,30.14,SE,137,1.0,3.0,68,0.00,,,0.00,weatherlink.com 1.10,2013-08-21 14:37:00,
2013-08-21 10:52:00,82.1,71.0,30.14,SSE,164,0.0,4.0,70,0.00,,,0.00,weatherlink.com 1.10,2013-08-21 14:52:00,
2013-08-21 11:07:00,82.5,71.0,30.14,ESE,110,1.0,3.0,68,0.00,,,0.00,weatherlink.com 1.10,2013-08-21 15:07:00,
2013-08-21 11:22:00,83.7,71.0,30.14,SSE,161,0.0,4.0,65,0.00,,,0.00,weatherlink.com 1.10,2013-08-21 15:22:00,
2013-08-21 11:37:00,83.8,69.0,30.14,SE,128,0.0,4.0,62,0.00,,,0.00,weatherlink.com 1.10,2013-08-21 15:37:00,
2013-08-21 11:52:00,84.9,67.0,30.13,WNW,300,2.0,4.0,56,0.00,,,0.00,weatherlink.com 1.10,2013-08-21 15:52:00,
2013-08-21 12:08:00,86.4,63.0,30.13,NW,304,1.0,5.0,46,0.00,,,0.00,weatherlink.com 1.10,2013-08-21 16:08:00,
2013-08-21 12:23:00,86.5,65.0,30.13,SSW,210,0.0,3.0,48,0.00,,,0.00,weatherlink.com 1.10,2013-08-21 16:23:00,
2013-08-21 12:38:00,87.2,63.0,30.12,WSW,245,0.0,5.0,44,0.00,,,0.00,weatherlink.com 1.10,2013-08-21 16:38:00,
2013-08-21 12:53:00,86.7,62.0,30.12,WNW,291,3.0,4.0,44,0.00,,,0.00,weatherlink.com 1.10,2013-08-21 16:53:00,
2013-08-21 13:08:00,87.1,63.0,30.12,WSW,253,1.0,3.0,44,0.00,,,0.00,weatherlink.com 1.10,2013-08-21 17:08:00,
2013-08-21 13:23:00,87.5,68.0,30.11,SE,129,2.0,4.0,53,0.00,,,0.00,weatherlink.com 1.10,2013-08-21 17:23:00,
2013-08-21 13:38:00,86.2,68.0,30.11,SW,217,2.0,6.0,54,0.00,,,0.00,weatherlink.com 1.10,2013-08-21 17:38:00,
2013-08-21 13:53:00,85.2,68.0,30.11,SSE,153,5.0,9.0,56,0.00,,,0.00,weatherlink.com 1.10,2013-08-21 17:53:00,
2013-08-21 14:08:00,84.5,69.0,30.11,SSW,212,6.0,9.0,59,0.00,,,0.00,weatherlink.com 1.10,2013-08-21 18:08:00,
2013-08-21 14:23:00,84.0,68.0,30.10,SSW,212,2.0,9.0,59,0.00,,,0.00,weatherlink.com 1.10,2013-08-21 18:23:00,
2013-08-21 14:38:00,84.1,69.0,30.09,South,181,2.0,9.0,61,0.00,,,0.00,weatherlink.com 1.10,2013-08-21 18:38:00,
2013-08-21 14:53:00,83.8,68.0,30.09,SSW,205,1.0,10.0,60,0.00,,,0.00,weatherlink.com 1.10,2013-08-21 18:53:00,
2013-08-21 15:08:00,83.3,67.0,30.09,SSW,203,2.0,7.0,58,0.00,,,0.00,weatherlink.com 1.10,2013-08-21 19:08:00,
2013-08-21 15:23:00,83.2,67.0,30.09,SSW,203,5.0,8.0,58,0.00,,,0.00,weatherlink.com 1.10,2013-08-21 19:23:00,
2013-08-21 15:38:00,82.9,67.0,30.09,SW,219,4.0,10.0,58,0.00,,,0.00,weatherlink.com 1.10,2013-08-21 19:38:00,
2013-08-21 15:53:00,82.7,66.0,30.09,SW,219,2.0,7.0,57,0.00,,,0.00,weatherlink.com 1.10,2013-08-21 19:53:00,
2013-08-21 16:08:00,82.2,66.0,30.09,SSW,201,1.0,5.0,59,0.00,,,0.00,weatherlink.com 1.10,2013-08-21 20:08:00,
2013-08-21 16:23:00,82.0,67.0,30.08,SW,220,3.0,7.0,60,0.00,,,0.00,weatherlink.com 1.10,2013-08-21 20:23:00,
2013-08-21 16:38:00,81.7,66.0,30.08,SSW,205,0.0,4.0,59,0.00,,,0.00,weatherlink.com 1.10,2013-08-21 20:38:00,
2013-08-21 16:53:00,81.3,66.0,30.08,SW,229,2.0,6.0,59,0.00,,,0.00,weatherlink.com 1.10,2013-08-21 20:53:00,
2013-08-21 17:08:00,81.2,66.0,30.07,SW,216,1.0,5.0,60,0.00,,,0.00,weatherlink.com 1.10,2013-08-21 21:08:00,
2013-08-21 17:23:00,80.5,66.0,30.07,SW,234,3.0,8.0,61,0.00,,,0.00,weatherlink.com 1.10,2013-08-21 21:23:00,
2013-08-21 17:38:00,80.5,67.0,30.07,SSW,196,1.0,9.0,63,0.00,,,0.00,weatherlink.com 1.10,2013-08-21 21:38:00,
2013-08-21 17:53:00,80.1,67.0,30.07,SW,229,2.0,4.0,65,0.00,,,0.00,weatherlink.com 1.10,2013-08-21 21:53:00,
2013-08-21 18:08:00,79.6,67.0,30.06,South,183,1.0,6.0,65,0.00,,,0.00,weatherlink.com 1.10,2013-08-21 22:08:00,
2013-08-21 18:23:00,78.9,66.0,30.06,WSW,240,1.0,4.0,65,0.00,,,0.00,weatherlink.com 1.10,2013-08-21 22:23:00,
2013-08-21 18:38:00,78.5,67.0,30.06,SSE,155,0.0,3.0,68,0.00,,,0.00,weatherlink.com 1.10,2013-08-21 22:38:00,
2013-08-21 18:53:00,77.8,68.0,30.06,SSE,163,0.0,3.0,71,0.00,,,0.00,weatherlink.com 1.10,2013-08-21 22:53:00,
2013-08-21 19:08:00,77.1,68.0,30.06,SSE,163,3.0,5.0,74,0.00,,,0.00,weatherlink.com 1.10,2013-08-21 23:08:00,
2013-08-21 19:23:00,76.3,69.0,30.07,SSE,160,0.0,2.0,77,0.00,,,0.00,weatherlink.com 1.10,2013-08-21 23:23:00,
2013-08-21 19:38:00,75.5,69.0,30.06,SW,221,1.0,3.0,79,0.00,,,0.00,weatherlink.com 1.10,2013-08-21 23:38:00,
2013-08-21 19:53:00,74.9,68.0,30.06,NE,54,0.0,1.0,80,0.00,,,0.00,weatherlink.com 1.10,2013-08-21 23:53:00,
2013-08-21 20:08:00,74.2,68.0,30.06,SW,227,1.0,2.0,81,0.00,,,0.00,weatherlink.com 1.10,2013-08-22 00:08:00,
2013-08-21 20:23:00,73.8,68.0,30.07,SSW,210,0.0,1.0,82,0.00,,,0.00,weatherlink.com 1.10,2013-08-22 00:23:00,
2013-08-21 20:38:00,73.2,68.0,30.07,SSE,167,0.0,1.0,83,0.00,,,0.00,weatherlink.com 1.10,2013-08-22 00:38:00,
2013-08-21 20:53:00,72.9,67.0,30.07,SW,215,0.0,1.0,82,0.00,,,0.00,weatherlink.com 1.10,2013-08-22 00:53:00,
2013-08-21 21:08:00,72.7,67.0,30.07,WSW,241,0.0,1.0,81,0.00,,,0.00,weatherlink.com 1.10,2013-08-22 01:08:00,
2013-08-21 21:23:00,72.4,66.0,30.07,WSW,242,0.0,0.0,81,0.00,,,0.00,weatherlink.com 1.10,2013-08-22 01:23:00,
2013-08-21 21:38:00,71.7,66.0,30.07,SSW,195,0.0,1.0,83,0.00,,,0.00,weatherlink.com 1.10,2013-08-22 01:38:00,
2013-08-21 21:53:00,71.5,66.0,30.07,SSE,161,0.0,1.0,83,0.00,,,0.00,weatherlink.com 1.10,2013-08-22 01:53:00,
2013-08-21 22:08:00,71.4,66.0,30.07,SSE,150,0.0,2.0,83,0.00,,,0.00,weatherlink.com 1.10,2013-08-22 02:08:00,
2013-08-21 22:23:00,71.2,66.0,30.07,SW,230,0.0,2.0,84,0.00,,,0.00,weatherlink.com 1.10,2013-08-22 02:23:00,
2013-08-21 22:38:00,71.0,66.0,30.07,SW,229,0.0,1.0,85,0.00,,,0.00,weatherlink.com 1.10,2013-08-22 02:38:00,
2013-08-21 22:53:00,70.7,66.0,30.07,SSE,148,0.0,0.0,86,0.00,,,0.00,weatherlink.com 1.10,2013-08-22 02:53:00,
2013-08-21 23:08:00,70.8,66.0,30.07,WSW,252,0.0,1.0,85,0.00,,,0.00,weatherlink.com 1.10,2013-08-22 03:08:00,
2013-08-21 23:23:00,70.8,66.0,30.06,SSW,202,0.0,1.0,85,0.00,,,0.00,weatherlink.com 1.10,2013-08-22 03:23:00,
2013-08-21 23:38:00,70.9,66.0,30.06,WSW,253,0.0,1.0,84,0.00,,,0.00,weatherlink.com 1.10,2013-08-22 03:38:00,
2013-08-21 23:53:00,70.7,66.0,30.05,WNW,282,0.0,0.0,85,0.00,,,0.00,weatherlink.com 1.10,2013-08-22 03:53:00,